地図

経路データ

SID SEASON NUMBER BASIN SUBBASIN NAME ISO_TIME NATURE LAT LON WMO_WIND WMO_PRES WMO_AGENCY TRACK_TYPE DIST2LAND LANDFALL IFLAG USA_AGENCY USA_ATCF_ID USA_LAT USA_LON USA_RECORD USA_STATUS USA_WIND USA_PRES USA_SSHS USA_R34_NE USA_R34_SE USA_R34_SW USA_R34_NW USA_R50_NE USA_R50_SE USA_R50_SW USA_R50_NW USA_R64_NE USA_R64_SE USA_R64_SW USA_R64_NW USA_POCI USA_ROCI USA_RMW USA_EYE TOKYO_LAT TOKYO_LON TOKYO_GRADE TOKYO_WIND TOKYO_PRES TOKYO_R50_DIR TOKYO_R50_LONG TOKYO_R50_SHORT TOKYO_R30_DIR TOKYO_R30_LONG TOKYO_R30_SHORT TOKYO_LAND CMA_LAT CMA_LON CMA_CAT CMA_WIND CMA_PRES HKO_LAT HKO_LON HKO_CAT HKO_WIND HKO_PRES NEWDELHI_LAT NEWDELHI_LON NEWDELHI_GRADE NEWDELHI_WIND NEWDELHI_PRES NEWDELHI_CI NEWDELHI_DP NEWDELHI_POCI REUNION_LAT REUNION_LON REUNION_TYPE REUNION_WIND REUNION_PRES REUNION_TNUM REUNION_CI REUNION_RMW REUNION_R34_NE REUNION_R34_SE REUNION_R34_SW REUNION_R34_NW REUNION_R50_NE REUNION_R50_SE REUNION_R50_SW REUNION_R50_NW REUNION_R64_NE REUNION_R64_SE REUNION_R64_SW REUNION_R64_NW BOM_LAT BOM_LON BOM_TYPE BOM_WIND BOM_PRES BOM_TNUM BOM_CI BOM_RMW BOM_R34_NE BOM_R34_SE BOM_R34_SW BOM_R34_NW BOM_R50_NE BOM_R50_SE BOM_R50_SW BOM_R50_NW BOM_R64_NE BOM_R64_SE BOM_R64_SW BOM_R64_NW BOM_ROCI BOM_POCI BOM_EYE BOM_POS_METHOD BOM_PRES_METHOD NADI_LAT NADI_LON NADI_CAT NADI_WIND NADI_PRES WELLINGTON_LAT WELLINGTON_LON WELLINGTON_WIND WELLINGTON_PRES DS824_LAT DS824_LON DS824_STAGE DS824_WIND DS824_PRES TD9636_LAT TD9636_LON TD9636_STAGE TD9636_WIND TD9636_PRES TD9635_LAT TD9635_LON TD9635_WIND TD9635_PRES TD9635_ROCI NEUMANN_LAT NEUMANN_LON NEUMANN_CLASS NEUMANN_WIND NEUMANN_PRES MLC_LAT MLC_LON MLC_CLASS MLC_WIND MLC_PRES USA_GUST BOM_GUST BOM_GUST_PER REUNION_GUST REUNION_GUST_PER USA_SEAHGT USA_SEARAD_NE USA_SEARAD_SE USA_SEARAD_SW USA_SEARAD_NW STORM_SPEED STORM_DIR
1942289N16138 1942 66 WP MM NOT_NAMED 1942-10-15 12:00:00 NR 15.5000 138.000 main 1399 1378 __________O___ -1 15.5000 138.000 4 4 271
1942289N16138 1942 66 WP MM NOT_NAMED 1942-10-15 15:00:00 NR 15.5047 137.781 main 1378 1357 __________P___ -1 15.5047 137.781 4 4 271
1942289N16138 1942 66 WP MM NOT_NAMED 1942-10-15 18:00:00 NR 15.5074 137.550 main 1357 1326 __________P___ -1 15.5074 137.550 4 5 270
1942289N16138 1942 66 WP MM NOT_NAMED 1942-10-15 21:00:00 NR 15.5064 137.294 main 1326 1295 __________P___ -1 15.5064 137.294 4 5 269
1942289N16138 1942 66 WP MM NOT_NAMED 1942-10-16 00:00:00 NR 15.5000 137.000 main 1295 1264 __________O___ -1 15.5000 137.000 4 6 268
1942289N16138 1942 66 WP MM NOT_NAMED 1942-10-16 03:00:00 NR 15.4864 136.662 main 1264 1223 __________P___ -1 15.4864 136.662 4 7 267
1942289N16138 1942 66 WP MM NOT_NAMED 1942-10-16 06:00:00 NR 15.4653 136.300 main 1223 1189 __________P___ -1 15.4653 136.300 4 7 266
1942289N16138 1942 66 WP MM NOT_NAMED 1942-10-16 09:00:00 NR 15.4364 135.938 main 1179 1148 __________P___ -1 15.4364 135.938 4 7 264
1942289N16138 1942 66 WP MM NOT_NAMED 1942-10-16 12:00:00 NR 15.4000 135.600 main 1148 1117 __________O___ -1 15.4000 135.600 4 6 263
1942289N16138 1942 66 WP MM NOT_NAMED 1942-10-16 15:00:00 NR 15.3690 135.330 main 1117 1093 __________P___ -1 15.3690 135.330 4 5 262
1942289N16138 1942 66 WP MM NOT_NAMED 1942-10-16 18:00:00 NR 15.3296 135.085 main 1093 1073 __________P___ -1 15.3296 135.085 4 5 259
1942289N16138 1942 66 WP MM NOT_NAMED 1942-10-16 21:00:00 NR 15.2753 134.848 main 1063 1039 __________P___ -1 15.2753 134.848 4 5 255
1942289N16138 1942 66 WP MM NOT_NAMED 1942-10-17 00:00:00 NR 15.2000 134.600 main 1039 1005 __________O___ -1 15.2000 134.600 4 6 250
1942289N16138 1942 66 WP MM NOT_NAMED 1942-10-17 03:00:00 NR 15.0884 134.310 main 1005 971 __________P___ -1 15.0884 134.310 4 6 247
1942289N16138 1942 66 WP MM NOT_NAMED 1942-10-17 06:00:00 NR 14.9575 134.007 main 971 933 __________P___ -1 14.9575 134.007 4 6 246
1942289N16138 1942 66 WP MM NOT_NAMED 1942-10-17 09:00:00 NR 14.8228 133.701 main 933 899 __________P___ -1 14.8228 133.701 4 6 246
1942289N16138 1942 66 WP MM NOT_NAMED 1942-10-17 12:00:00 NR 14.7000 133.400 main 899 865 __________O___ -1 14.7000 133.400 4 6 249
1942289N16138 1942 66 WP MM NOT_NAMED 1942-10-17 15:00:00 NR 14.6010 133.112 main 865 841 __________P___ -1 14.6010 133.112 4 6 252
1942289N16138 1942 66 WP MM NOT_NAMED 1942-10-17 18:00:00 NR 14.5226 132.835 main 831 810 __________P___ -1 14.5226 132.835 4 5 255
1942289N16138 1942 66 WP MM NOT_NAMED 1942-10-17 21:00:00 NR 14.4580 132.566 main 810 776 __________P___ -1 14.4580 132.566 4 5 257
1942289N16138 1942 66 WP MM NOT_NAMED 1942-10-18 00:00:00 NR 14.4000 132.300 main 776 __________O___ -1 14.4000 132.300 4 5 257

デジタル台風データ・検索

IBTrACS Databaseについて

本データベースは、米国NOAAが公開する1842年以降の世界の熱帯低気圧のベストトラックデータアーカイブInternational Best Track Archive for Climate Stewardship (IBTrACS)を、ウェブで閲覧しやすい形式に変換したものです。

最終更新日:2021-10-27